Latest Weather Observations for Coldstream

IDV60801

Issued at 10:05 pm EST Wednesday 20 August 2014 (issued every 30 minutes, with the page automatically refreshed every 10 minutes)

About weather observations | Map of weather stations | Latest weather observations for VIC | Other Formats
Station Details ID: 086383 Name: COLDSTREAM Lat: -37.72 Lon: 145.41 Height: 83.0 m
Data from the previous 72 hours. | See also: Recent months at Coldstream
Date/Time
EST
Temp
°C
App
Temp
°C
Dew
Point
Rel
Hum
%
Delta-T
°C
Wind Press
QNH
hPa
Press
MSL
hPa
Rain
since 9 am
mm
Dir
 
Spd
km/h
Gust
km/h
Spd
kts
Gust
kts
20/10:00pm 10.0 6.6 6.0 76 1.8 S 13 17 7 9 1027.8 1027.9 0.0
20/09:30pm 10.0 6.6 5.8 75 1.9 S 13 19 7 10 1027.9 1028.0 0.0
20/09:00pm 9.8 6.8 6.0 77 1.7 S 11 17 6 9 1027.9 1028.0 0.0
20/08:30pm 9.4 6.7 5.8 78 1.7 SSE 9 13 5 7 1027.9 1028.0 0.0
20/08:00pm 9.3 6.3 5.9 79 1.6 SSE 11 13 6 7 1027.9 1028.0 0.0
20/07:30pm 9.2 6.5 5.8 79 1.6 SSE 9 15 5 8 1027.7 1027.8 0.0
20/07:00pm 10.1 7.5 6.3 77 1.8 S 9 13 5 7 1027.7 1027.8 0.0
20/06:30pm 10.3 8.2 6.5 77 1.8 SSE 7 13 4 7 1027.5 1027.6 0.0
20/06:00pm 10.9 8.3 6.3 73 2.1 S 9 15 5 8 1027.1 1027.2 0.0
20/05:30pm 11.4 9.1 5.9 69 2.6 S 7 13 4 7 1026.7 1026.8 0.0
20/05:00pm 11.8 9.2 6.3 69 2.6 SSE 9 13 5 7 1026.3 1026.5 0.0
20/04:30pm 12.0 9.4 5.9 66 2.9 SSE 9 15 5 8 1026.2 1026.4 0.0
20/04:00pm 12.2 9.5 5.6 64 3.1 SSE 9 15 5 8 1026.1 1026.3 0.0
20/03:30pm 12.4 9.5 6.5 67 2.8 S 11 19 6 10 1026.0 1026.2 0.0
20/03:00pm 12.4 9.1 6.2 66 2.9 SSE 13 19 7 10 1025.9 1026.1 0.0
20/02:30pm 12.9 9.9 6.0 63 3.3 S 11 17 6 9 1025.7 1025.9 0.0
20/02:00pm 12.9 9.2 6.3 64 3.1 S 15 20 8 11 1025.7 1025.9 0.0
20/01:30pm 13.0 9.5 5.4 60 3.6 S 13 20 7 11 1025.7 1025.9 0.0
20/01:00pm 12.9 10.0 4.8 58 3.7 S 9 15 5 8 1026.0 1026.2 0.0
20/12:30pm 13.9 11.8 6.5 61 3.6 SE 7 15 4 8 1026.3 1026.5 0.0
20/12:00pm 13.3 10.0 6.6 64 3.2 SSE 13 20 7 11 1026.7 1026.8 0.0
20/11:30am 12.1 7.3 4.8 61 3.4 ESE 19 22 10 12 1027.0 1027.1 0.0
20/11:00am 11.6 6.7 4.3 61 3.3 SE 19 26 10 14 1027.3 1027.4 0.0
20/10:30am 11.6 7.1 4.1 60 3.4 ESE 17 22 9 12 1027.3 1027.4 0.0
20/10:00am 11.4 7.6 3.9 60 3.3 E 13 24 7 13 1027.3 1027.4 0.0
20/09:30am 10.6 5.9 3.4 61 3.2 E 17 22 9 12 1027.1 1027.2 0.0
20/09:00am 10.0 7.0 4.2 67 2.6 E 9 22 5 12 1026.9 1027.0 0.2
20/08:30am 7.3 4.7 4.3 81 1.3 NNW 7 11 4 6 1026.9 1027.0 0.2
20/08:00am 7.1 5.9 4.4 83 1.2 CALM 0 0 0 0 1026.6 1026.7 0.2
20/07:30am 5.0 3.5 3.0 87 0.8 CALM 0 0 0 0 1026.3 1026.5 0.2
20/07:00am 4.7 1.8 1.4 79 1.3 SSW 6 7 3 4 1025.9 1026.1 0.2
20/06:30am 6.5 3.5 2.2 74 1.8 S 7 11 4 6 1025.5 1025.7 0.2
20/06:00am 7.4 3.8 2.9 73 1.9 S 11 19 6 10 1025.4 1025.6 0.2
20/05:30am 6.6 3.4 3.2 79 1.4 S 9 13 5 7 1025.2 1025.4 0.2
20/05:00am 6.0 2.8 2.8 80 1.3 S 9 13 5 7 1025.1 1025.3 0.2
20/04:30am 6.0 2.4 3.0 81 1.2 S 11 15 6 8 1025.1 1025.3 0.2
20/04:00am 6.1 2.5 2.9 80 1.3 S 11 15 6 8 1025.1 1025.3 0.2
20/03:30am 6.6 3.1 3.4 80 1.4 S 11 13 6 7 1024.9 1025.1 0.2
20/03:00am 6.6 3.5 3.4 80 1.3 S 9 13 5 7 1024.9 1025.1 0.2
20/02:30am 6.3 3.1 3.3 81 1.3 S 9 13 5 7 1025.0 1025.2 0.2
20/02:00am 7.1 4.1 3.9 80 1.4 S 9 13 5 7 1025.3 1025.5 0.2
20/01:30am 7.1 4.1 4.1 81 1.3 S 9 11 5 6 1025.4 1025.6 0.2
20/01:00am 7.3 4.0 4.3 81 1.3 S 11 13 6 7 1025.3 1025.5 0.2
20/12:30am 7.9 4.6 4.3 78 1.6 S 11 17 6 9 1025.3 1025.5 0.2
20/12:00am 9.0 6.1 4.6 74 1.9 S 9 17 5 9 1025.3 1025.5 0.2
 
Date/Time
EST
Temp
°C
App
Temp
°C
Dew
Point
Rel
Hum
%
Delta-T
°C
Wind Press
QNH
hPa
Press
MSL
hPa
Rain
since 9 am
mm
Dir
 
Spd
km/h
Gust
km/h
Spd
kts
Gust
kts
19/11:30pm 9.3 6.4 4.7 73 2.1 S 9 13 5 7 1025.5 1025.7 0.2
19/11:00pm 9.4 6.5 4.6 72 2.1 S 9 15 5 8 1025.5 1025.7 0.2
19/10:30pm 9.5 6.6 4.7 72 2.2 S 9 15 5 8 1025.5 1025.7 0.2
19/10:00pm 9.6 5.6 5.0 73 2.1 S 15 20 8 11 1025.5 1025.7 0.2
19/09:30pm 9.5 5.9 4.9 73 2.1 S 13 17 7 9 1025.4 1025.6 0.2
19/09:00pm 9.8 6.2 4.8 71 2.2 S 13 20 7 11 1025.2 1025.4 0.2
19/08:30pm 9.9 6.3 4.9 71 2.3 S 13 22 7 12 1025.2 1025.4 0.2
19/08:00pm 10.0 6.0 5.0 71 2.3 SSE 15 20 8 11 1025.1 1025.3 0.2
19/07:30pm 10.0 6.4 5.0 71 2.3 SSE 13 20 7 11 1025.0 1025.2 0.2
19/07:00pm 10.1 6.6 5.5 73 2.1 SSE 13 24 7 13 1024.8 1025.0 0.2
19/06:30pm 10.3 6.5 5.7 73 2.1 S 15 26 8 14 1024.5 1024.7 0.2
19/06:00pm 10.4 7.0 5.8 73 2.1 SSE 13 22 7 12 1024.2 1024.4 0.2
19/05:30pm 10.5 7.5 6.1 74 2.1 SSE 11 22 6 12 1024.0 1024.2 0.2
19/05:00pm 10.7 7.0 6.3 74 2.1 S 15 22 8 12 1023.7 1023.9 0.2
19/04:30pm 10.9 7.6 6.6 75 2.0 SSE 13 20 7 11 1023.7 1023.9 0.2
19/04:00pm 11.2 7.6 6.9 75 2.0 S 15 22 8 12 1023.5 1023.7 0.2
19/03:30pm 11.3 7.7 6.8 74 2.1 SSE 15 24 8 13 1023.4 1023.6 0.2
19/03:00pm 11.7 8.7 7.6 76 2.0 SSE 13 24 7 13 1023.3 1023.5 0.2
19/02:30pm 12.1 8.7 7.8 75 2.1 SSE 15 22 8 12 1023.3 1023.5 0.2
19/02:00pm 11.8 8.4 7.5 75 2.1 S 15 22 8 12 1023.3 1023.5 0.2
19/01:30pm 11.6 8.2 7.5 76 2.0 SSE 15 24 8 13 1023.4 1023.6 0.2
19/01:00pm 11.8 7.6 7.3 74 2.2 SSE 19 28 10 15 1023.6 1023.8 0.2
19/12:30pm 12.8 8.5 7.0 68 2.8 SE 19 26 10 14 1023.7 1023.9 0.2
19/12:00pm 13.6 9.6 8.4 71 2.6 SE 19 28 10 15 1024.0 1024.2 0.2
19/11:30am 13.0 8.1 6.8 66 3.0 ESE 22 30 12 16 1024.2 1024.4 0.2
19/11:00am 13.4 9.1 7.2 66 3.0 SSE 19 30 10 16 1024.4 1024.6 0.2
19/10:30am 12.0 8.1 7.3 73 2.3 SSE 17 22 9 12 1024.4 1024.6 0.0
19/10:00am 12.2 8.4 7.7 74 2.2 SSE 17 26 9 14 1024.4 1024.6 0.0
19/09:30am 12.0 8.3 8.1 77 1.9 SE 17 22 9 12 1024.5 1024.7 0.0
19/09:00am 11.1 7.3 7.6 79 1.7 SE 17 24 9 13 1024.3 1024.5 0.0
19/08:30am 10.9 8.8 8.1 83 1.4 SSE 9 17 5 9 1024.2 1024.4 0.0
19/08:00am 9.8 6.8 7.6 86 1.0 SSE 13 19 7 10 1024.0 1024.2 0.0
19/07:30am 9.5 6.4 7.3 86 1.0 SSE 13 17 7 9 1023.7 1023.9 0.0
19/07:00am 9.7 6.9 7.1 84 1.2 SSE 11 19 6 10 1023.4 1023.6 0.0
19/06:30am 9.8 7.0 7.1 83 1.3 SSE 11 17 6 9 1023.1 1023.3 0.0
19/06:00am 10.0 6.9 7.1 82 1.4 S 13 20 7 11 1023.0 1023.2 0.0
19/05:30am 10.2 7.1 7.3 82 1.4 SSE 13 26 7 14 1022.7 1022.9 0.0
19/05:00am 10.3 7.2 7.4 82 1.4 SSE 13 20 7 11 1022.5 1022.7 0.0
19/04:30am 10.3 7.3 7.7 84 1.3 S 13 24 7 13 1022.3 1022.5 0.0
19/04:00am 10.4 7.4 7.6 83 1.3 SSE 13 22 7 12 1022.1 1022.3 0.0
19/03:30am 10.4 7.8 7.8 84 1.3 S 11 17 6 9 1022.0 1022.2 0.0
19/03:00am 10.4 7.9 8.2 86 1.1 S 11 19 6 10 1022.0 1022.2 0.0
19/02:30am 10.4 7.5 8.2 86 1.1 S 13 20 7 11 1022.1 1022.3 0.0
19/02:00am 10.2 6.9 8.1 87 1.0 S 15 20 8 11 1021.9 1022.1 0.0
19/01:30am 10.3 7.0 8.2 87 1.0 S 15 24 8 13 1022.0 1022.2 0.0
19/01:00am 10.2 7.0 8.3 88 0.9 SSE 15 20 8 11 1022.1 1022.3 0.0
19/12:30am 10.3 7.0 8.2 87 1.0 SSE 15 22 8 12 1022.0 1022.2 0.0
19/12:00am 10.3 6.7 8.2 87 1.0 SSE 17 24 9 13 1022.1 1022.3 0.0
 
Date/Time
EST
Temp
°C
App
Temp
°C
Dew
Point
Rel
Hum
%
Delta-T
°C
Wind Press
QNH
hPa
Press
MSL
hPa
Rain
since 9 am
mm
Dir
 
Spd
km/h
Gust
km/h
Spd
kts
Gust
kts
18/11:30pm 10.4 7.2 8.3 87 1.0 S 15 24 8 13 1022.1 1022.3 0.0
18/11:00pm 10.4 7.2 8.3 87 1.0 S 15 28 8 15 1022.0 1022.2 0.0
18/10:30pm 10.4 7.5 8.3 87 1.0 S 13 22 7 12 1022.0 1022.2 0.0
18/10:00pm 10.4 7.5 8.3 87 1.0 S 13 19 7 10 1022.0 1022.2 0.0
18/09:30pm 10.4 7.5 8.2 86 1.1 S 13 22 7 12 1021.8 1022.0 0.0
18/09:00pm 10.3 7.8 8.1 86 1.1 S 11 19 6 10 1021.6 1021.7 0.0
18/08:30pm 10.4 7.5 8.2 86 1.1 S 13 20 7 11 1021.5 1021.6 0.0
18/08:00pm 10.4 7.9 8.0 85 1.2 S 11 19 6 10 1021.3 1021.4 0.0
18/07:30pm 10.4 7.9 8.0 85 1.2 S 11 17 6 9 1021.2 1021.3 0.0
18/07:00pm 10.4 7.4 7.8 84 1.3 S 13 20 7 11 1021.0 1021.1 0.0
18/06:30pm 10.5 7.6 8.1 85 1.2 S 13 20 7 11 1020.7 1020.8 0.0
18/06:00pm 10.6 7.7 8.2 85 1.2 S 13 20 7 11 1020.5 1020.6 0.0
18/05:30pm 11.0 8.1 8.2 83 1.4 S 13 22 7 12 1020.3 1020.4 0.0
18/05:00pm 11.3 8.4 8.2 81 1.5 S 13 24 7 13 1020.0 1020.1 0.0
18/04:30pm 11.4 7.8 8.4 82 1.5 S 17 28 9 15 1019.8 1019.9 0.0
18/04:00pm 11.0 7.4 8.4 84 1.3 S 17 24 9 13 1019.8 1019.9 0.0
18/03:30pm 10.9 8.1 8.7 86 1.1 S 13 19 7 10 1019.7 1019.8 0.0
18/03:00pm 11.3 8.0 8.0 80 1.6 S 15 24 8 13 1019.6 1019.7 0.0
18/02:30pm 11.4 8.0 7.7 78 1.8 S 15 24 8 13 1019.3 1019.4 0.0
18/02:00pm 11.6 7.8 7.7 77 1.9 SSE 17 30 9 16 1019.4 1019.5 0.0
18/01:30pm 11.5 7.7 7.4 76 2.0 S 17 24 9 13 1019.4 1019.5 0.0
18/01:00pm 11.6 7.2 7.3 75 2.1 S 20 32 11 17 1019.6 1019.7 0.0
18/12:30pm 11.3 8.3 7.8 79 1.7 S 13 22 7 12 1019.8 1019.9 0.0
18/12:00pm 11.4 8.0 7.7 78 1.8 SSE 15 28 8 15 1020.2 1020.3 0.0
18/11:30am 11.5 7.5 6.8 73 2.2 S 17 30 9 16 1020.4 1020.5 0.0
18/11:00am 12.0 8.2 7.5 74 2.2 SSE 17 28 9 15 1020.5 1020.6 0.0
18/10:30am 11.6 8.2 7.5 76 2.0 SSE 15 24 8 13 1020.4 1020.5 0.0
18/10:00am 11.2 7.3 6.9 75 2.0 SSE 17 30 9 16 1020.4 1020.5 0.0
18/09:30am 11.1 7.1 6.8 75 2.0 S 17 28 9 15 1020.3 1020.4 0.0
18/09:00am 10.9 8.2 7.4 79 1.7 SSE 11 17 6 9 1020.3 1020.4 0.0
18/08:30am 10.6 7.9 7.3 80 1.6 S 11 22 6 12 1020.2 1020.3 0.0
18/08:00am 10.3 7.2 7.4 82 1.4 S 13 17 7 9 1020.0 1020.1 0.0
18/07:30am 10.1 7.0 7.2 82 1.4 S 13 22 7 12 1019.7 1019.8 0.0
18/07:00am 10.0 7.3 7.4 84 1.2 SSE 11 20 6 11 1019.4 1019.5 0.0
18/06:30am 10.1 7.5 7.7 85 1.2 SSE 11 22 6 12 1019.2 1019.3 0.0
18/06:00am 10.2 6.4 7.6 84 1.2 SSE 17 24 9 13 1018.9 1019.0 0.0
18/05:30am 10.2 6.8 7.6 84 1.3 SSE 15 28 8 15 1018.5 1018.6 0.0
18/05:00am 10.0 6.6 7.8 86 1.1 SSE 15 24 8 13 1018.1 1018.2 0.0
18/04:30am 9.9 6.1 7.7 86 1.1 SSE 17 26 9 14 1018.0 1018.1 0.0
18/04:00am 9.7 7.5 7.8 88 0.9 SSE 9 20 5 11 1017.9 1018.0 0.0
18/03:30am 9.4 6.4 7.5 88 0.9 S 13 20 7 11 1017.9 1018.0 0.0
18/03:00am 9.6 6.2 7.5 87 1.0 S 15 26 8 14 1018.1 1018.2 0.0
18/02:30am 9.5 6.4 7.4 87 1.0 S 13 24 7 13 1018.3 1018.4 0.0
18/02:00am 9.8 6.4 7.6 86 1.1 S 15 24 8 13 1018.5 1018.6 0.0
18/01:30am 9.8 7.2 7.7 87 1.0 S 11 20 6 11 1018.5 1018.6 0.0
18/01:00am 9.7 6.7 7.5 86 1.0 S 13 24 7 13 1018.5 1018.6 0.0
18/12:30am 9.9 6.9 7.8 87 1.0 S 13 20 7 11 1018.4 1018.5 0.0
18/12:00am 9.7 6.3 7.6 87 1.0 S 15 22 8 12 1018.6 1018.7 0.0
 
Date/Time
EST
Temp
°C
App
Temp
°C
Dew
Point
Rel
Hum
%
Delta-T
°C
Wind Press
QNH
hPa
Press
MSL
hPa
Rain
since 9 am
mm
Dir
 
Spd
km/h
Gust
km/h
Spd
kts
Gust
kts
17/11:30pm 9.9 6.9 7.7 86 1.1 S 13 26 7 14 1018.6 1018.7 0.0
17/11:00pm 10.1 7.1 7.5 84 1.2 S 13 22 7 12 1018.6 1018.7 0.0
17/10:30pm 10.4 7.0 7.8 84 1.3 SSE 15 30 8 16 1018.6 1018.7 0.0

Other Formats:

Comma delimited format used in spreadsheet applications
http://www.bom.gov.au/fwo/IDV60801/IDV60801.94864.axf

JavaScript Object Notation format (JSON) in row-major order
http://www.bom.gov.au/fwo/IDV60801/IDV60801.94864.json